sensor_id;sensor_type;location;lat;lon;timestamp;P1;durP1;ratioP1;P2;durP2;ratioP2
39882;SDS011;55824;52.220;21.040;2023-10-08T00:03:21;5.97;;;2.33;;
39882;SDS011;55824;52.220;21.040;2023-10-08T00:05:47;3.47;;;1.95;;
39882;SDS011;55824;52.220;21.040;2023-10-08T00:08:14;3.53;;;2.00;;
39882;SDS011;55824;52.220;21.040;2023-10-08T00:10:42;5.82;;;2.05;;
39882;SDS011;55824;52.220;21.040;2023-10-08T00:13:09;4.22;;;2.28;;
39882;SDS011;55824;52.220;21.040;2023-10-08T00:15:36;4.57;;;1.98;;
39882;SDS011;55824;52.220;21.040;2023-10-08T00:18:03;4.30;;;2.05;;
39882;SDS011;55824;52.220;21.040;2023-10-08T00:20:31;6.07;;;2.22;;
39882;SDS011;55824;52.220;21.040;2023-10-08T00:23:02;5.25;;;2.30;;
39882;SDS011;55824;52.220;21.040;2023-10-08T00:25:32;3.50;;;1.83;;
39882;SDS011;55824;52.220;21.040;2023-10-08T00:27:59;3.63;;;1.65;;
39882;SDS011;55824;52.220;21.040;2023-10-08T00:30:27;4.72;;;2.00;;
39882;SDS011;55824;52.220;21.040;2023-10-08T00:32:56;3.42;;;1.70;;
39882;SDS011;55824;52.220;21.040;2023-10-08T00:35:22;5.43;;;2.00;;
39882;SDS011;55824;52.220;21.040;2023-10-08T00:37:49;4.05;;;1.67;;
39882;SDS011;55824;52.220;21.040;2023-10-08T00:40:16;3.53;;;1.50;;
39882;SDS011;55824;52.220;21.040;2023-10-08T00:42:46;6.97;;;1.83;;
39882;SDS011;55824;52.220;21.040;2023-10-08T00:45:12;4.72;;;2.00;;
39882;SDS011;55824;52.220;21.040;2023-10-08T00:47:39;3.97;;;1.70;;
39882;SDS011;55824;52.220;21.040;2023-10-08T00:50:10;3.13;;;1.85;;
39882;SDS011;55824;52.220;21.040;2023-10-08T00:52:45;4.35;;;1.90;;
39882;SDS011;55824;52.220;21.040;2023-10-08T00:55:23;4.13;;;1.93;;
39882;SDS011;55824;52.220;21.040;2023-10-08T00:57:59;3.97;;;1.95;;
39882;SDS011;55824;52.220;21.040;2023-10-08T01:00:34;2.53;;;1.52;;
39882;SDS011;55824;52.220;21.040;2023-10-08T01:03:06;6.13;;;1.88;;
39882;SDS011;55824;52.220;21.040;2023-10-08T01:05:40;2.92;;;1.60;;
39882;SDS011;55824;52.220;21.040;2023-10-08T01:08:12;5.80;;;2.03;;
39882;SDS011;55824;52.220;21.040;2023-10-08T01:10:43;4.35;;;1.65;;
39882;SDS011;55824;52.220;21.040;2023-10-08T01:13:11;3.75;;;1.75;;
39882;SDS011;55824;52.220;21.040;2023-10-08T01:15:45;4.28;;;2.00;;
39882;SDS011;55824;52.220;21.040;2023-10-08T01:18:15;5.15;;;2.00;;
39882;SDS011;55824;52.220;21.040;2023-10-08T01:20:53;4.72;;;1.98;;
39882;SDS011;55824;52.220;21.040;2023-10-08T01:23:20;3.60;;;1.83;;
39882;SDS011;55824;52.220;21.040;2023-10-08T01:25:48;3.35;;;1.50;;
39882;SDS011;55824;52.220;21.040;2023-10-08T01:28:18;5.82;;;1.58;;
39882;SDS011;55824;52.220;21.040;2023-10-08T01:30:58;2.33;;;1.50;;
39882;SDS011;55824;52.220;21.040;2023-10-08T01:33:28;4.10;;;1.67;;
39882;SDS011;55824;52.220;21.040;2023-10-08T01:35:55;4.70;;;2.10;;
39882;SDS011;55824;52.220;21.040;2023-10-08T01:38:29;6.28;;;2.17;;
39882;SDS011;55824;52.220;21.040;2023-10-08T01:40:55;3.45;;;1.73;;
39882;SDS011;55824;52.220;21.040;2023-10-08T01:43:22;5.50;;;2.20;;
39882;SDS011;55824;52.220;21.040;2023-10-08T01:45:48;4.00;;;1.65;;
39882;SDS011;55824;52.220;21.040;2023-10-08T01:48:16;3.70;;;1.92;;
39882;SDS011;55824;52.220;21.040;2023-10-08T01:50:46;4.90;;;2.17;;
39882;SDS011;55824;52.220;21.040;2023-10-08T01:53:12;4.35;;;2.20;;
39882;SDS011;55824;52.220;21.040;2023-10-08T01:55:40;4.47;;;2.08;;
39882;SDS011;55824;52.220;21.040;2023-10-08T01:58:14;2.95;;;1.63;;
39882;SDS011;55824;52.220;21.040;2023-10-08T02:00:47;4.65;;;1.70;;
39882;SDS011;55824;52.220;21.040;2023-10-08T02:03:13;4.03;;;1.90;;
39882;SDS011;55824;52.220;21.040;2023-10-08T02:05:44;4.10;;;1.73;;
39882;SDS011;55824;52.220;21.040;2023-10-08T02:08:10;3.67;;;1.75;;
39882;SDS011;55824;52.220;21.040;2023-10-08T02:10:40;5.78;;;1.67;;
39882;SDS011;55824;52.220;21.040;2023-10-08T02:13:08;2.50;;;1.70;;
39882;SDS011;55824;52.220;21.040;2023-10-08T02:15:40;5.18;;;2.05;;
39882;SDS011;55824;52.220;21.040;2023-10-08T02:18:06;4.85;;;2.15;;
39882;SDS011;55824;52.220;21.040;2023-10-08T02:20:33;5.18;;;1.73;;
39882;SDS011;55824;52.220;21.040;2023-10-08T02:22:59;3.33;;;1.90;;
39882;SDS011;55824;52.220;21.040;2023-10-08T02:25:26;3.55;;;1.73;;
39882;SDS011;55824;52.220;21.040;2023-10-08T02:27:52;5.43;;;1.92;;
39882;SDS011;55824;52.220;21.040;2023-10-08T02:30:18;7.30;;;2.20;;
39882;SDS011;55824;52.220;21.040;2023-10-08T02:32:44;3.25;;;1.70;;
39882;SDS011;55824;52.220;21.040;2023-10-08T02:35:11;2.90;;;1.52;;
39882;SDS011;55824;52.220;21.040;2023-10-08T02:37:38;3.60;;;1.90;;
39882;SDS011;55824;52.220;21.040;2023-10-08T02:40:06;3.05;;;1.63;;
39882;SDS011;55824;52.220;21.040;2023-10-08T02:42:39;4.18;;;1.90;;
39882;SDS011;55824;52.220;21.040;2023-10-08T02:45:06;5.10;;;2.05;;
39882;SDS011;55824;52.220;21.040;2023-10-08T02:47:38;4.50;;;2.10;;
39882;SDS011;55824;52.220;21.040;2023-10-08T02:50:05;3.67;;;1.92;;
39882;SDS011;55824;52.220;21.040;2023-10-08T02:52:33;2.53;;;1.55;;
39882;SDS011;55824;52.220;21.040;2023-10-08T02:55:00;5.45;;;1.75;;
39882;SDS011;55824;52.220;21.040;2023-10-08T02:57:26;4.05;;;2.03;;
39882;SDS011;55824;52.220;21.040;2023-10-08T02:59:54;5.53;;;1.73;;
39882;SDS011;55824;52.220;21.040;2023-10-08T03:02:21;5.60;;;2.22;;
39882;SDS011;55824;52.220;21.040;2023-10-08T03:04:47;4.35;;;2.15;;
39882;SDS011;55824;52.220;21.040;2023-10-08T03:07:16;3.47;;;1.92;;
39882;SDS011;55824;52.220;21.040;2023-10-08T03:09:57;3.88;;;1.67;;
39882;SDS011;55824;52.220;21.040;2023-10-08T03:12:42;3.97;;;2.20;;
39882;SDS011;55824;52.220;21.040;2023-10-08T03:15:08;3.80;;;1.98;;
39882;SDS011;55824;52.220;21.040;2023-10-08T03:17:53;4.78;;;1.77;;
39882;SDS011;55824;52.220;21.040;2023-10-08T03:20:19;4.60;;;1.75;;
39882;SDS011;55824;52.220;21.040;2023-10-08T03:23:07;5.15;;;1.98;;
39882;SDS011;55824;52.220;21.040;2023-10-08T03:25:54;4.28;;;1.90;;
39882;SDS011;55824;52.220;21.040;2023-10-08T03:28:24;4.18;;;1.58;;
39882;SDS011;55824;52.220;21.040;2023-10-08T03:30:51;4.47;;;2.13;;
39882;SDS011;55824;52.220;21.040;2023-10-08T03:33:21;4.57;;;1.92;;
39882;SDS011;55824;52.220;21.040;2023-10-08T03:35:48;4.80;;;1.88;;
39882;SDS011;55824;52.220;21.040;2023-10-08T03:38:17;4.30;;;2.10;;
39882;SDS011;55824;52.220;21.040;2023-10-08T03:40:46;4.50;;;1.83;;
39882;SDS011;55824;52.220;21.040;2023-10-08T03:43:15;4.78;;;2.25;;
39882;SDS011;55824;52.220;21.040;2023-10-08T03:45:59;4.28;;;1.70;;
39882;SDS011;55824;52.220;21.040;2023-10-08T03:48:30;5.05;;;2.10;;
39882;SDS011;55824;52.220;21.040;2023-10-08T03:51:01;3.90;;;1.70;;
39882;SDS011;55824;52.220;21.040;2023-10-08T03:53:32;4.13;;;1.73;;
39882;SDS011;55824;52.220;21.040;2023-10-08T03:56:07;3.40;;;1.70;;
39882;SDS011;55824;52.220;21.040;2023-10-08T03:58:33;4.65;;;1.83;;
39882;SDS011;55824;52.220;21.040;2023-10-08T04:01:06;3.47;;;1.30;;
39882;SDS011;55824;52.220;21.040;2023-10-08T04:03:42;3.38;;;1.60;;
39882;SDS011;55824;52.220;21.040;2023-10-08T04:06:19;3.75;;;1.65;;
39882;SDS011;55824;52.220;21.040;2023-10-08T04:08:53;4.20;;;1.88;;
39882;SDS011;55824;52.220;21.040;2023-10-08T04:11:35;4.30;;;2.00;;
39882;SDS011;55824;52.220;21.040;2023-10-08T04:14:08;3.33;;;1.77;;
39882;SDS011;55824;52.220;21.040;2023-10-08T04:16:34;2.58;;;1.60;;
39882;SDS011;55824;52.220;21.040;2023-10-08T04:19:02;4.00;;;1.60;;
39882;SDS011;55824;52.220;21.040;2023-10-08T04:21:29;3.83;;;1.70;;
39882;SDS011;55824;52.220;21.040;2023-10-08T04:23:56;2.92;;;1.55;;
39882;SDS011;55824;52.220;21.040;2023-10-08T04:26:23;2.80;;;1.42;;
39882;SDS011;55824;52.220;21.040;2023-10-08T04:28:55;3.70;;;1.75;;
39882;SDS011;55824;52.220;21.040;2023-10-08T04:31:28;2.42;;;1.30;;
39882;SDS011;55824;52.220;21.040;2023-10-08T04:34:06;3.53;;;1.52;;
39882;SDS011;55824;52.220;21.040;2023-10-08T04:36:52;2.97;;;1.63;;
39882;SDS011;55824;52.220;21.040;2023-10-08T04:39:26;3.42;;;1.63;;
39882;SDS011;55824;52.220;21.040;2023-10-08T04:41:59;2.42;;;1.55;;
39882;SDS011;55824;52.220;21.040;2023-10-08T04:44:32;2.13;;;1.40;;
39882;SDS011;55824;52.220;21.040;2023-10-08T04:46:58;1.98;;;1.05;;
39882;SDS011;55824;52.220;21.040;2023-10-08T04:49:30;2.60;;;1.30;;
39882;SDS011;55824;52.220;21.040;2023-10-08T04:51:58;2.53;;;1.50;;
39882;SDS011;55824;52.220;21.040;2023-10-08T04:54:25;2.35;;;1.27;;
39882;SDS011;55824;52.220;21.040;2023-10-08T04:57:00;1.95;;;1.27;;
39882;SDS011;55824;52.220;21.040;2023-10-08T04:59:31;4.43;;;1.45;;
39882;SDS011;55824;52.220;21.040;2023-10-08T05:02:00;2.40;;;1.37;;
39882;SDS011;55824;52.220;21.040;2023-10-08T05:04:48;2.45;;;1.45;;
39882;SDS011;55824;52.220;21.040;2023-10-08T05:07:19;2.15;;;1.30;;
39882;SDS011;55824;52.220;21.040;2023-10-08T05:10:04;2.38;;;1.10;;
39882;SDS011;55824;52.220;21.040;2023-10-08T05:12:33;2.83;;;1.23;;
39882;SDS011;55824;52.220;21.040;2023-10-08T05:14:59;2.08;;;1.08;;
39882;SDS011;55824;52.220;21.040;2023-10-08T05:17:38;4.55;;;1.30;;
39882;SDS011;55824;52.220;21.040;2023-10-08T05:20:20;1.85;;;1.05;;
39882;SDS011;55824;52.220;21.040;2023-10-08T05:23:11;1.70;;;1.02;;
39882;SDS011;55824;52.220;21.040;2023-10-08T05:25:50;2.28;;;1.20;;
39882;SDS011;55824;52.220;21.040;2023-10-08T05:28:24;2.55;;;1.27;;
39882;SDS011;55824;52.220;21.040;2023-10-08T05:30:50;2.70;;;1.42;;
39882;SDS011;55824;52.220;21.040;2023-10-08T05:33:34;1.58;;;1.05;;
39882;SDS011;55824;52.220;21.040;2023-10-08T05:36:19;2.05;;;1.23;;
39882;SDS011;55824;52.220;21.040;2023-10-08T05:38:53;2.33;;;0.93;;
39882;SDS011;55824;52.220;21.040;2023-10-08T05:41:29;1.63;;;1.25;;
39882;SDS011;55824;52.220;21.040;2023-10-08T05:44:18;2.90;;;1.30;;
39882;SDS011;55824;52.220;21.040;2023-10-08T05:46:44;3.58;;;1.10;;
39882;SDS011;55824;52.220;21.040;2023-10-08T05:49:32;2.75;;;1.40;;
39882;SDS011;55824;52.220;21.040;2023-10-08T05:51:58;3.47;;;1.58;;
39882;SDS011;55824;52.220;21.040;2023-10-08T05:54:25;1.63;;;1.10;;
39882;SDS011;55824;52.220;21.040;2023-10-08T05:56:54;2.63;;;1.35;;
39882;SDS011;55824;52.220;21.040;2023-10-08T05:59:49;2.55;;;1.20;;
39882;SDS011;55824;52.220;21.040;2023-10-08T06:02:22;1.42;;;1.00;;
39882;SDS011;55824;52.220;21.040;2023-10-08T06:05:14;2.45;;;1.20;;
39882;SDS011;55824;52.220;21.040;2023-10-08T06:07:41;3.15;;;1.25;;
39882;SDS011;55824;52.220;21.040;2023-10-08T06:10:21;2.38;;;1.25;;
39882;SDS011;55824;52.220;21.040;2023-10-08T06:18:17;3.85;;;1.50;;
39882;SDS011;55824;52.220;21.040;2023-10-08T06:20:44;3.40;;;1.20;;
39882;SDS011;55824;52.220;21.040;2023-10-08T06:23:10;8.32;;;2.17;;
39882;SDS011;55824;52.220;21.040;2023-10-08T06:25:38;6.30;;;1.83;;
39882;SDS011;55824;52.220;21.040;2023-10-08T06:28:13;4.50;;;1.27;;
39882;SDS011;55824;52.220;21.040;2023-10-08T06:30:50;4.72;;;1.70;;
39882;SDS011;55824;52.220;21.040;2023-10-08T06:33:22;3.00;;;1.30;;
39882;SDS011;55824;52.220;21.040;2023-10-08T06:36:01;4.97;;;1.60;;
39882;SDS011;55824;52.220;21.040;2023-10-08T06:38:31;4.35;;;1.13;;
39882;SDS011;55824;52.220;21.040;2023-10-08T06:41:02;3.38;;;1.45;;
39882;SDS011;55824;52.220;21.040;2023-10-08T06:43:37;3.05;;;1.25;;
39882;SDS011;55824;52.220;21.040;2023-10-08T06:46:03;4.03;;;1.10;;
39882;SDS011;55824;52.220;21.040;2023-10-08T06:48:32;3.97;;;1.52;;
39882;SDS011;55824;52.220;21.040;2023-10-08T06:50:59;3.08;;;1.52;;
39882;SDS011;55824;52.220;21.040;2023-10-08T06:53:46;4.30;;;1.30;;
39882;SDS011;55824;52.220;21.040;2023-10-08T06:56:13;6.25;;;1.58;;
39882;SDS011;55824;52.220;21.040;2023-10-08T06:58:40;6.47;;;1.70;;
39882;SDS011;55824;52.220;21.040;2023-10-08T07:01:11;3.35;;;1.70;;
39882;SDS011;55824;52.220;21.040;2023-10-08T07:03:38;2.15;;;0.98;;
39882;SDS011;55824;52.220;21.040;2023-10-08T07:06:04;8.25;;;2.03;;
39882;SDS011;55824;52.220;21.040;2023-10-08T07:08:50;4.43;;;1.35;;
39882;SDS011;55824;52.220;21.040;2023-10-08T07:11:20;3.83;;;1.35;;
39882;SDS011;55824;52.220;21.040;2023-10-08T07:13:46;3.28;;;1.30;;
39882;SDS011;55824;52.220;21.040;2023-10-08T07:16:12;3.10;;;1.15;;
39882;SDS011;55824;52.220;21.040;2023-10-08T07:18:42;4.45;;;1.50;;
39882;SDS011;55824;52.220;21.040;2023-10-08T07:21:16;3.03;;;0.93;;
39882;SDS011;55824;52.220;21.040;2023-10-08T07:23:42;2.17;;;0.90;;
39882;SDS011;55824;52.220;21.040;2023-10-08T07:26:29;3.25;;;1.27;;
39882;SDS011;55824;52.220;21.040;2023-10-08T07:29:02;4.25;;;1.05;;
39882;SDS011;55824;52.220;21.040;2023-10-08T07:31:34;4.47;;;1.90;;
39882;SDS011;55824;52.220;21.040;2023-10-08T07:34:01;6.75;;;2.72;;
39882;SDS011;55824;52.220;21.040;2023-10-08T07:36:46;10.70;;;1.80;;
39882;SDS011;55824;52.220;21.040;2023-10-08T07:39:15;7.63;;;1.75;;
39882;SDS011;55824;52.220;21.040;2023-10-08T07:41:48;6.28;;;1.55;;
39882;SDS011;55824;52.220;21.040;2023-10-08T07:44:15;3.85;;;1.42;;
39882;SDS011;55824;52.220;21.040;2023-10-08T07:46:41;4.85;;;1.70;;
39882;SDS011;55824;52.220;21.040;2023-10-08T07:49:09;16.25;;;2.55;;
39882;SDS011;55824;52.220;21.040;2023-10-08T07:51:39;10.05;;;2.13;;
39882;SDS011;55824;52.220;21.040;2023-10-08T07:54:05;7.25;;;1.63;;
39882;SDS011;55824;52.220;21.040;2023-10-08T07:56:34;8.48;;;1.67;;
39882;SDS011;55824;52.220;21.040;2023-10-08T07:59:02;7.50;;;2.47;;
39882;SDS011;55824;52.220;21.040;2023-10-08T08:01:33;10.20;;;2.00;;
39882;SDS011;55824;52.220;21.040;2023-10-08T08:04:00;8.80;;;1.55;;
39882;SDS011;55824;52.220;21.040;2023-10-08T08:06:26;8.95;;;1.75;;
39882;SDS011;55824;52.220;21.040;2023-10-08T08:08:52;18.60;;;2.00;;
39882;SDS011;55824;52.220;21.040;2023-10-08T08:11:18;3.30;;;1.13;;
39882;SDS011;55824;52.220;21.040;2023-10-08T08:13:44;7.22;;;1.50;;
39882;SDS011;55824;52.220;21.040;2023-10-08T08:16:11;2.35;;;1.30;;
39882;SDS011;55824;52.220;21.040;2023-10-08T08:18:46;1.63;;;1.17;;
39882;SDS011;55824;52.220;21.040;2023-10-08T08:21:13;4.10;;;2.13;;
39882;SDS011;55824;52.220;21.040;2023-10-08T08:23:41;4.82;;;1.65;;
39882;SDS011;55824;52.220;21.040;2023-10-08T08:26:12;5.38;;;1.40;;
39882;SDS011;55824;52.220;21.040;2023-10-08T08:28:51;3.03;;;1.30;;
39882;SDS011;55824;52.220;21.040;2023-10-08T08:31:17;6.03;;;1.30;;
39882;SDS011;55824;52.220;21.040;2023-10-08T08:33:44;4.80;;;1.15;;
39882;SDS011;55824;52.220;21.040;2023-10-08T08:36:24;7.70;;;1.50;;
39882;SDS011;55824;52.220;21.040;2023-10-08T08:38:51;3.78;;;1.30;;
39882;SDS011;55824;52.220;21.040;2023-10-08T08:41:17;3.58;;;1.13;;
39882;SDS011;55824;52.220;21.040;2023-10-08T08:43:46;5.03;;;1.10;;
39882;SDS011;55824;52.220;21.040;2023-10-08T08:46:13;3.95;;;1.15;;
39882;SDS011;55824;52.220;21.040;2023-10-08T08:48:43;4.35;;;1.35;;
39882;SDS011;55824;52.220;21.040;2023-10-08T08:51:12;3.50;;;1.17;;
39882;SDS011;55824;52.220;21.040;2023-10-08T08:53:39;10.02;;;1.55;;
39882;SDS011;55824;52.220;21.040;2023-10-08T08:56:06;6.25;;;1.27;;
39882;SDS011;55824;52.220;21.040;2023-10-08T08:58:34;4.10;;;1.27;;
39882;SDS011;55824;52.220;21.040;2023-10-08T09:01:00;2.50;;;1.35;;
39882;SDS011;55824;52.220;21.040;2023-10-08T09:03:28;3.90;;;1.30;;
39882;SDS011;55824;52.220;21.040;2023-10-08T09:05:58;8.63;;;1.15;;
39882;SDS011;55824;52.220;21.040;2023-10-08T09:08:42;2.65;;;1.30;;
39882;SDS011;55824;52.220;21.040;2023-10-08T09:11:13;1.15;;;0.80;;
39882;SDS011;55824;52.220;21.040;2023-10-08T09:16:07;3.47;;;1.20;;
39882;SDS011;55824;52.220;21.040;2023-10-08T09:18:34;3.65;;;1.38;;
39882;SDS011;55824;52.220;21.040;2023-10-08T09:21:07;2.38;;;1.10;;
39882;SDS011;55824;52.220;21.040;2023-10-08T09:23:36;5.13;;;1.13;;
39882;SDS011;55824;52.220;21.040;2023-10-08T09:26:04;3.77;;;1.17;;
39882;SDS011;55824;52.220;21.040;2023-10-08T09:28:33;7.38;;;1.40;;
39882;SDS011;55824;52.220;21.040;2023-10-08T09:30:59;5.57;;;1.55;;
39882;SDS011;55824;52.220;21.040;2023-10-08T09:33:25;12.98;;;2.45;;
39882;SDS011;55824;52.220;21.040;2023-10-08T09:35:53;6.65;;;1.67;;
39882;SDS011;55824;52.220;21.040;2023-10-08T09:38:22;5.93;;;1.40;;
39882;SDS011;55824;52.220;21.040;2023-10-08T09:40:49;11.07;;;1.42;;
39882;SDS011;55824;52.220;21.040;2023-10-08T09:43:15;3.00;;;0.90;;
39882;SDS011;55824;52.220;21.040;2023-10-08T09:45:47;4.70;;;1.20;;
39882;SDS011;55824;52.220;21.040;2023-10-08T09:48:15;2.67;;;0.82;;
39882;SDS011;55824;52.220;21.040;2023-10-08T09:50:42;1.30;;;0.73;;
39882;SDS011;55824;52.220;21.040;2023-10-08T09:53:10;3.38;;;1.10;;
39882;SDS011;55824;52.220;21.040;2023-10-08T09:55:44;3.35;;;0.98;;
39882;SDS011;55824;52.220;21.040;2023-10-08T09:58:11;6.57;;;1.15;;
39882;SDS011;55824;52.220;21.040;2023-10-08T10:00:39;4.60;;;1.33;;
39882;SDS011;55824;52.220;21.040;2023-10-08T10:03:07;5.73;;;1.40;;
39882;SDS011;55824;52.220;21.040;2023-10-08T10:05:34;2.78;;;0.80;;
39882;SDS011;55824;52.220;21.040;2023-10-08T10:08:02;3.60;;;1.30;;
39882;SDS011;55824;52.220;21.040;2023-10-08T10:10:31;3.55;;;1.05;;
39882;SDS011;55824;52.220;21.040;2023-10-08T10:12:58;2.75;;;1.10;;
39882;SDS011;55824;52.220;21.040;2023-10-08T10:15:25;3.50;;;1.17;;
39882;SDS011;55824;52.220;21.040;2023-10-08T10:17:50;2.40;;;1.02;;
39882;SDS011;55824;52.220;21.040;2023-10-08T10:20:17;5.60;;;1.35;;
39882;SDS011;55824;52.220;21.040;2023-10-08T10:22:44;2.88;;;1.10;;
39882;SDS011;55824;52.220;21.040;2023-10-08T10:25:10;3.55;;;1.02;;
39882;SDS011;55824;52.220;21.040;2023-10-08T10:30:29;2.60;;;0.90;;
39882;SDS011;55824;52.220;21.040;2023-10-08T10:32:55;3.40;;;0.95;;
39882;SDS011;55824;52.220;21.040;2023-10-08T10:35:24;2.78;;;0.93;;
39882;SDS011;55824;52.220;21.040;2023-10-08T10:37:52;1.20;;;0.95;;
39882;SDS011;55824;52.220;21.040;2023-10-08T10:40:20;3.65;;;1.02;;
39882;SDS011;55824;52.220;21.040;2023-10-08T10:43:04;2.22;;;0.90;;
39882;SDS011;55824;52.220;21.040;2023-10-08T10:45:32;1.25;;;0.73;;
39882;SDS011;55824;52.220;21.040;2023-10-08T10:50:38;2.10;;;0.93;;
39882;SDS011;55824;52.220;21.040;2023-10-08T10:53:13;7.35;;;1.40;;
39882;SDS011;55824;52.220;21.040;2023-10-08T10:55:41;7.95;;;1.20;;
39882;SDS011;55824;52.220;21.040;2023-10-08T10:58:23;7.30;;;1.10;;
39882;SDS011;55824;52.220;21.040;2023-10-08T11:00:49;5.70;;;1.38;;
39882;SDS011;55824;52.220;21.040;2023-10-08T11:03:23;13.05;;;2.30;;
39882;SDS011;55824;52.220;21.040;2023-10-08T11:05:55;13.32;;;1.10;;
39882;SDS011;55824;52.220;21.040;2023-10-08T11:08:25;4.28;;;1.13;;
39882;SDS011;55824;52.220;21.040;2023-10-08T11:10:51;3.70;;;1.00;;
39882;SDS011;55824;52.220;21.040;2023-10-08T11:13:21;7.22;;;1.00;;
39882;SDS011;55824;52.220;21.040;2023-10-08T11:15:53;2.70;;;0.90;;
39882;SDS011;55824;52.220;21.040;2023-10-08T11:18:21;20.50;;;2.72;;
39882;SDS011;55824;52.220;21.040;2023-10-08T11:20:48;5.80;;;1.10;;
39882;SDS011;55824;52.220;21.040;2023-10-08T11:23:41;4.32;;;1.45;;
39882;SDS011;55824;52.220;21.040;2023-10-08T11:26:07;2.88;;;1.95;;
39882;SDS011;55824;52.220;21.040;2023-10-08T11:28:34;3.40;;;1.63;;
39882;SDS011;55824;52.220;21.040;2023-10-08T11:31:03;3.63;;;1.63;;
39882;SDS011;55824;52.220;21.040;2023-10-08T11:33:43;4.68;;;1.38;;
39882;SDS011;55824;52.220;21.040;2023-10-08T11:36:21;5.53;;;1.10;;
39882;SDS011;55824;52.220;21.040;2023-10-08T11:38:54;4.25;;;1.27;;
39882;SDS011;55824;52.220;21.040;2023-10-08T11:41:26;7.82;;;1.50;;
39882;SDS011;55824;52.220;21.040;2023-10-08T11:43:57;4.47;;;1.20;;
39882;SDS011;55824;52.220;21.040;2023-10-08T11:48:51;8.65;;;1.30;;
39882;SDS011;55824;52.220;21.040;2023-10-08T11:51:17;2.88;;;1.33;;
39882;SDS011;55824;52.220;21.040;2023-10-08T11:53:48;5.00;;;1.20;;
39882;SDS011;55824;52.220;21.040;2023-10-08T11:56:14;4.82;;;1.05;;
39882;SDS011;55824;52.220;21.040;2023-10-08T11:58:41;1.77;;;0.60;;
39882;SDS011;55824;52.220;21.040;2023-10-08T12:01:10;3.67;;;1.27;;
39882;SDS011;55824;52.220;21.040;2023-10-08T12:03:40;4.07;;;1.40;;
39882;SDS011;55824;52.220;21.040;2023-10-08T12:06:06;3.67;;;1.30;;
39882;SDS011;55824;52.220;21.040;2023-10-08T12:08:33;4.40;;;1.05;;
39882;SDS011;55824;52.220;21.040;2023-10-08T12:11:04;7.00;;;1.23;;
39882;SDS011;55824;52.220;21.040;2023-10-08T12:13:36;4.32;;;1.15;;
39882;SDS011;55824;52.220;21.040;2023-10-08T12:16:02;4.05;;;0.85;;
39882;SDS011;55824;52.220;21.040;2023-10-08T12:18:32;2.42;;;1.20;;
39882;SDS011;55824;52.220;21.040;2023-10-08T12:21:04;2.95;;;1.13;;
39882;SDS011;55824;52.220;21.040;2023-10-08T12:23:35;2.25;;;1.33;;
39882;SDS011;55824;52.220;21.040;2023-10-08T12:26:02;2.08;;;0.80;;
39882;SDS011;55824;52.220;21.040;2023-10-08T12:28:32;2.67;;;1.20;;
39882;SDS011;55824;52.220;21.040;2023-10-08T12:30:59;1.50;;;0.98;;
39882;SDS011;55824;52.220;21.040;2023-10-08T12:33:31;1.95;;;0.93;;
39882;SDS011;55824;52.220;21.040;2023-10-08T12:35:58;2.35;;;1.20;;
39882;SDS011;55824;52.220;21.040;2023-10-08T12:38:36;1.08;;;0.65;;
39882;SDS011;55824;52.220;21.040;2023-10-08T12:41:02;1.95;;;0.80;;
39882;SDS011;55824;52.220;21.040;2023-10-08T12:43:37;1.30;;;0.80;;
39882;SDS011;55824;52.220;21.040;2023-10-08T12:46:04;1.80;;;1.00;;
39882;SDS011;55824;52.220;21.040;2023-10-08T12:48:35;5.50;;;1.08;;
39882;SDS011;55824;52.220;21.040;2023-10-08T12:51:02;2.08;;;0.95;;
39882;SDS011;55824;52.220;21.040;2023-10-08T12:53:31;3.58;;;1.20;;
39882;SDS011;55824;52.220;21.040;2023-10-08T12:58:35;1.97;;;1.10;;
39882;SDS011;55824;52.220;21.040;2023-10-08T13:01:13;3.45;;;1.35;;
39882;SDS011;55824;52.220;21.040;2023-10-08T13:03:39;7.15;;;1.17;;
39882;SDS011;55824;52.220;21.040;2023-10-08T13:06:12;5.15;;;1.38;;
39882;SDS011;55824;52.220;21.040;2023-10-08T13:08:53;3.67;;;1.60;;
39882;SDS011;55824;52.220;21.040;2023-10-08T13:11:19;3.40;;;1.13;;
39882;SDS011;55824;52.220;21.040;2023-10-08T13:13:48;5.65;;;1.30;;
39882;SDS011;55824;52.220;21.040;2023-10-08T13:16:14;2.00;;;1.15;;
39882;SDS011;55824;52.220;21.040;2023-10-08T13:18:40;1.98;;;1.00;;
39882;SDS011;55824;52.220;21.040;2023-10-08T13:21:08;3.33;;;1.00;;
39882;SDS011;55824;52.220;21.040;2023-10-08T13:23:34;2.15;;;1.20;;
39882;SDS011;55824;52.220;21.040;2023-10-08T13:26:01;3.60;;;1.20;;
39882;SDS011;55824;52.220;21.040;2023-10-08T13:28:29;4.00;;;1.30;;
39882;SDS011;55824;52.220;21.040;2023-10-08T13:30:58;2.60;;;1.05;;
39882;SDS011;55824;52.220;21.040;2023-10-08T13:33:24;1.95;;;0.85;;
39882;SDS011;55824;52.220;21.040;2023-10-08T13:35:51;4.72;;;1.42;;
39882;SDS011;55824;52.220;21.040;2023-10-08T13:38:17;4.68;;;1.02;;
39882;SDS011;55824;52.220;21.040;2023-10-08T13:40:48;4.88;;;1.38;;
39882;SDS011;55824;52.220;21.040;2023-10-08T13:43:31;1.60;;;0.95;;
39882;SDS011;55824;52.220;21.040;2023-10-08T13:46:04;1.77;;;0.70;;
39882;SDS011;55824;52.220;21.040;2023-10-08T13:48:32;3.28;;;1.00;;
39882;SDS011;55824;52.220;21.040;2023-10-08T13:50:59;2.38;;;0.90;;
39882;SDS011;55824;52.220;21.040;2023-10-08T13:53:26;4.05;;;1.45;;
39882;SDS011;55824;52.220;21.040;2023-10-08T13:55:55;6.60;;;1.33;;
39882;SDS011;55824;52.220;21.040;2023-10-08T13:58:21;4.38;;;0.98;;
39882;SDS011;55824;52.220;21.040;2023-10-08T14:00:47;4.35;;;1.63;;
39882;SDS011;55824;52.220;21.040;2023-10-08T14:03:17;4.65;;;1.13;;
39882;SDS011;55824;52.220;21.040;2023-10-08T14:05:46;4.57;;;1.33;;
39882;SDS011;55824;52.220;21.040;2023-10-08T14:08:16;3.47;;;1.53;;
39882;SDS011;55824;52.220;21.040;2023-10-08T14:10:43;2.50;;;0.88;;
39882;SDS011;55824;52.220;21.040;2023-10-08T14:13:10;3.33;;;1.85;;
39882;SDS011;55824;52.220;21.040;2023-10-08T14:15:36;6.18;;;1.40;;
39882;SDS011;55824;52.220;21.040;2023-10-08T14:18:09;1.67;;;0.98;;
39882;SDS011;55824;52.220;21.040;2023-10-08T14:20:36;5.35;;;1.05;;
39882;SDS011;55824;52.220;21.040;2023-10-08T14:23:05;3.15;;;1.10;;
39882;SDS011;55824;52.220;21.040;2023-10-08T14:25:31;2.22;;;1.10;;
39882;SDS011;55824;52.220;21.040;2023-10-08T14:28:01;6.38;;;1.50;;
39882;SDS011;55824;52.220;21.040;2023-10-08T14:30:32;2.85;;;1.20;;
39882;SDS011;55824;52.220;21.040;2023-10-08T14:33:05;3.38;;;0.90;;
39882;SDS011;55824;52.220;21.040;2023-10-08T14:35:34;8.70;;;1.20;;
39882;SDS011;55824;52.220;21.040;2023-10-08T14:38:19;3.63;;;1.23;;
39882;SDS011;55824;52.220;21.040;2023-10-08T14:41:05;2.88;;;1.40;;
39882;SDS011;55824;52.220;21.040;2023-10-08T14:43:49;2.88;;;1.10;;
39882;SDS011;55824;52.220;21.040;2023-10-08T14:46:16;3.08;;;1.23;;
39882;SDS011;55824;52.220;21.040;2023-10-08T14:48:43;3.05;;;1.08;;
39882;SDS011;55824;52.220;21.040;2023-10-08T14:51:11;3.70;;;1.40;;
39882;SDS011;55824;52.220;21.040;2023-10-08T14:53:44;4.60;;;1.42;;
39882;SDS011;55824;52.220;21.040;2023-10-08T14:56:10;3.30;;;1.30;;
39882;SDS011;55824;52.220;21.040;2023-10-08T14:58:36;2.20;;;1.10;;
39882;SDS011;55824;52.220;21.040;2023-10-08T15:01:02;3.15;;;1.20;;
39882;SDS011;55824;52.220;21.040;2023-10-08T15:03:28;1.52;;;0.90;;
39882;SDS011;55824;52.220;21.040;2023-10-08T15:05:56;3.50;;;1.33;;
39882;SDS011;55824;52.220;21.040;2023-10-08T15:08:22;2.33;;;0.95;;
39882;SDS011;55824;52.220;21.040;2023-10-08T15:10:48;2.20;;;1.23;;
39882;SDS011;55824;52.220;21.040;2023-10-08T15:13:14;2.00;;;1.30;;